createdAt,value
2018-06-12T00:00:22.290Z,11.37
2018-06-12T00:02:50.596Z,9.93
2018-06-12T00:05:18.858Z,11.67
2018-06-12T00:07:47.115Z,12.10
2018-06-12T00:10:15.378Z,11.60
2018-06-12T00:12:43.636Z,11.37
2018-06-12T00:15:11.905Z,12.87
2018-06-12T00:17:40.166Z,11.97
2018-06-12T00:20:08.465Z,13.67
2018-06-12T00:22:36.725Z,13.30
2018-06-12T00:25:05.022Z,12.07
2018-06-12T00:27:33.291Z,12.93
2018-06-12T00:30:01.558Z,12.67
2018-06-12T00:32:29.829Z,14.20
2018-06-12T00:34:58.107Z,13.53
2018-06-12T00:37:26.382Z,13.63
2018-06-12T00:39:54.661Z,14.30
2018-06-12T00:42:22.934Z,13.80
2018-06-12T00:44:51.219Z,12.97
2018-06-12T00:47:19.514Z,13.57
2018-06-12T00:49:47.930Z,13.90
2018-06-12T00:52:16.196Z,15.00
2018-06-12T00:54:44.458Z,14.00
2018-06-12T00:57:13.006Z,13.80
2018-06-12T00:59:41.274Z,14.53
2018-06-12T01:02:09.569Z,14.03
2018-06-12T01:04:37.837Z,14.47
2018-06-12T01:07:06.108Z,12.93
2018-06-12T01:09:34.596Z,12.87
2018-06-12T01:12:02.878Z,14.60
2018-06-12T01:14:31.192Z,14.80
2018-06-12T01:16:59.477Z,15.80
2018-06-12T01:19:27.767Z,14.00
2018-06-12T01:21:56.051Z,13.93
2018-06-12T01:24:24.334Z,13.40
2018-06-12T01:26:52.601Z,15.47
2018-06-12T01:29:21.494Z,14.33
2018-06-12T01:31:49.773Z,13.90
2018-06-12T01:34:17.793Z,13.20
2018-06-12T01:36:46.059Z,14.27
2018-06-12T01:39:14.339Z,13.40
2018-06-12T01:41:42.614Z,13.83
2018-06-12T01:44:10.897Z,13.73
2018-06-12T01:46:39.370Z,12.90
2018-06-12T01:49:07.649Z,12.73
2018-06-12T01:51:35.953Z,13.10
2018-06-12T01:54:04.232Z,14.57
2018-06-12T01:56:32.502Z,12.07
2018-06-12T01:59:00.782Z,12.13
2018-06-12T02:01:29.046Z,12.00
2018-06-12T02:03:57.322Z,12.87
2018-06-12T02:06:25.606Z,12.50
2018-06-12T02:08:54.833Z,12.70
2018-06-12T02:11:23.126Z,12.87
2018-06-12T02:13:51.399Z,11.83
2018-06-12T02:16:19.706Z,13.03
2018-06-12T02:18:47.979Z,13.43
2018-06-12T02:21:16.259Z,12.23
2018-06-12T02:23:44.519Z,11.97
2018-06-12T02:26:12.794Z,12.10
2018-06-12T02:28:41.069Z,12.67
2018-06-12T02:31:09.390Z,11.63
2018-06-12T02:33:37.665Z,12.00
2018-06-12T02:36:05.947Z,11.63
2018-06-12T02:38:34.226Z,12.97
2018-06-12T02:41:02.526Z,12.93
2018-06-12T02:43:30.790Z,13.10
2018-06-12T02:45:59.078Z,12.73
2018-06-12T02:48:27.356Z,12.90
2018-06-12T02:50:55.642Z,14.53
2018-06-12T02:53:23.949Z,14.13
2018-06-12T02:55:52.222Z,13.37
2018-06-12T02:58:20.491Z,14.20
2018-06-12T03:00:48.764Z,13.30
2018-06-12T03:03:17.042Z,13.73
2018-06-12T03:05:45.347Z,13.57
2018-06-12T03:08:13.646Z,13.00
2018-06-12T03:10:41.935Z,13.20
2018-06-12T03:13:10.230Z,14.10
2018-06-12T03:15:38.490Z,14.00
2018-06-12T03:18:06.785Z,13.03
2018-06-12T03:20:45.786Z,12.70
2018-06-12T03:23:14.082Z,13.93
2018-06-12T03:25:42.350Z,13.33
2018-06-12T03:28:10.625Z,14.37
2018-06-12T03:30:39.049Z,13.57
2018-06-12T03:33:07.327Z,14.67
2018-06-12T03:35:35.602Z,12.93
2018-06-12T03:38:03.882Z,12.67
2018-06-12T03:40:32.145Z,11.97
2018-06-12T03:43:00.507Z,11.67
2018-06-12T03:45:28.770Z,13.60
2018-06-12T03:47:57.068Z,12.90
2018-06-12T03:50:25.336Z,13.93
2018-06-12T03:52:53.601Z,12.10
2018-06-12T03:55:22.180Z,13.03
2018-06-12T03:57:50.924Z,13.00
2018-06-12T04:00:19.219Z,12.40
2018-06-12T04:02:47.230Z,11.90
2018-06-12T04:05:15.499Z,13.50
2018-06-12T04:07:43.804Z,13.57
2018-06-12T04:10:12.039Z,14.23
2018-06-12T04:12:40.311Z,14.03
2018-06-12T04:15:08.655Z,14.47
2018-06-12T04:17:36.933Z,15.07
2018-06-12T04:20:05.218Z,14.97
2018-06-12T04:22:33.554Z,14.70
2018-06-12T04:25:01.825Z,14.77
2018-06-12T04:27:30.094Z,14.47
2018-06-12T04:29:58.378Z,14.47
2018-06-12T04:32:26.669Z,13.97
2018-06-12T04:34:54.959Z,14.07
2018-06-12T04:37:23.245Z,14.90
2018-06-12T04:39:51.558Z,13.90
2018-06-12T04:42:19.847Z,13.03
2018-06-12T04:44:48.106Z,14.00
2018-06-12T04:47:16.375Z,13.90
2018-06-12T04:49:44.645Z,14.00
2018-06-12T04:52:12.922Z,13.17
2018-06-12T04:54:41.244Z,15.47
2018-06-12T04:57:09.491Z,14.80
2018-06-12T04:59:37.768Z,14.20
2018-06-12T05:02:06.037Z,13.83
2018-06-12T05:04:34.340Z,14.53
2018-06-12T05:07:02.611Z,14.50
2018-06-12T05:09:30.893Z,14.80
2018-06-12T05:11:59.161Z,15.27
2018-06-12T05:14:27.435Z,13.63
2018-06-12T05:16:55.697Z,15.40
2018-06-12T05:19:23.977Z,13.83
2018-06-12T05:21:51.990Z,15.13
2018-06-12T05:24:20.470Z,14.87
2018-06-12T05:26:48.750Z,13.13
2018-06-12T05:29:17.026Z,13.57
2018-06-12T05:31:45.307Z,14.47
2018-06-12T05:34:13.599Z,14.57
2018-06-12T05:36:41.866Z,14.70
2018-06-12T05:39:11.069Z,13.87
2018-06-12T05:41:40.153Z,12.90
2018-06-12T05:44:08.423Z,16.07
2018-06-12T05:46:36.758Z,15.97
2018-06-12T05:49:05.200Z,14.70
2018-06-12T05:51:33.521Z,15.00
2018-06-12T05:54:01.949Z,13.03
2018-06-12T05:56:30.222Z,14.53
2018-06-12T05:58:58.512Z,13.00
2018-06-12T06:01:26.823Z,12.67
2018-06-12T06:03:55.098Z,12.00
2018-06-12T06:06:23.386Z,15.43
2018-06-12T06:08:51.766Z,12.90
2018-06-12T06:11:20.029Z,13.00
2018-06-12T06:13:48.315Z,11.80
2018-06-12T06:16:16.598Z,12.40
2018-06-12T06:18:44.866Z,12.33
2018-06-12T06:21:13.150Z,11.80
2018-06-12T06:23:41.437Z,13.23
2018-06-12T06:26:09.904Z,12.03
2018-06-12T06:28:38.170Z,11.40
2018-06-12T06:31:06.463Z,11.00
2018-06-12T06:33:34.735Z,9.13
2018-06-12T06:36:02.998Z,8.63
2018-06-12T06:38:31.281Z,8.00
2018-06-12T06:40:59.551Z,8.00
2018-06-12T06:43:27.826Z,8.40
2018-06-12T06:45:56.099Z,7.53
2018-06-12T06:48:24.487Z,6.00
2018-06-12T06:50:52.762Z,5.97
2018-06-12T06:53:21.045Z,5.20
2018-06-12T06:55:49.333Z,5.63
2018-06-12T06:58:17.613Z,5.77
2018-06-12T07:00:46.049Z,6.90
2018-06-12T07:03:14.589Z,6.27
2018-06-12T07:05:43.010Z,6.17
2018-06-12T07:08:11.297Z,6.97
2018-06-12T07:10:39.573Z,5.77
2018-06-12T07:13:08.078Z,5.90
2018-06-12T07:15:36.358Z,6.10
2018-06-12T07:18:04.635Z,5.60
2018-06-12T07:20:44.253Z,5.90
2018-06-12T07:23:12.530Z,6.93
2018-06-12T07:25:40.830Z,5.60
2018-06-12T07:28:09.104Z,5.47
2018-06-12T07:30:37.385Z,5.80
2018-06-12T07:33:05.795Z,5.80
2018-06-12T07:35:34.090Z,6.20
2018-06-12T07:38:02.106Z,5.67
2018-06-12T07:40:30.373Z,5.20
2018-06-12T07:42:58.639Z,5.30
2018-06-12T07:45:26.955Z,5.30
2018-06-12T07:47:55.482Z,4.53
2018-06-12T07:50:23.754Z,4.93
2018-06-12T07:52:52.054Z,6.43
2018-06-12T07:55:20.349Z,5.47
2018-06-12T07:57:48.687Z,5.67
2018-06-12T08:00:17.102Z,6.63
2018-06-12T08:02:45.422Z,5.43
2018-06-12T08:05:13.848Z,5.33
2018-06-12T08:07:42.142Z,5.23
2018-06-12T08:10:10.477Z,5.40
2018-06-12T08:12:38.737Z,4.67
2018-06-12T08:15:07.018Z,5.83
2018-06-12T08:17:35.306Z,4.40
2018-06-12T08:20:03.554Z,4.50
2018-06-12T08:22:31.817Z,5.50
2018-06-12T08:25:00.098Z,5.70
2018-06-12T08:27:28.370Z,5.90
2018-06-12T08:29:56.772Z,4.73
2018-06-12T08:32:24.973Z,5.53
2018-06-12T08:34:53.241Z,5.53
2018-06-12T08:37:21.570Z,4.93
2018-06-12T08:39:49.883Z,4.97
2018-06-12T08:42:18.121Z,5.53
2018-06-12T08:44:46.398Z,6.60
2018-06-12T08:47:14.666Z,5.97
2018-06-12T08:49:43.182Z,5.77
2018-06-12T08:52:11.474Z,5.40
2018-06-12T08:54:39.790Z,6.03
2018-06-12T08:57:08.058Z,5.70
2018-06-12T08:59:36.325Z,6.13
2018-06-12T09:02:04.606Z,6.47
2018-06-12T09:04:32.857Z,6.17
2018-06-12T09:07:01.126Z,6.33
2018-06-12T09:09:29.397Z,5.73
2018-06-12T09:11:57.683Z,5.73
2018-06-12T09:14:25.950Z,6.60
2018-06-12T09:16:54.226Z,5.93
2018-06-12T09:19:22.550Z,6.63
2018-06-12T09:21:50.878Z,6.23
2018-06-12T09:24:19.154Z,6.73
2018-06-12T09:26:47.433Z,6.77
2018-06-12T09:29:15.706Z,6.17
2018-06-12T09:31:43.989Z,6.07
2018-06-12T09:34:12.282Z,9.73
2018-06-12T09:36:40.554Z,5.53
2018-06-12T09:39:09.339Z,7.00
2018-06-12T09:41:37.645Z,5.80
2018-06-12T09:44:05.939Z,6.00
2018-06-12T09:46:34.213Z,5.50
2018-06-12T09:49:02.244Z,5.97
2018-06-12T09:51:30.557Z,5.43
2018-06-12T09:53:59.489Z,5.90
2018-06-12T09:56:27.793Z,5.40
2018-06-12T09:58:56.099Z,5.00
2018-06-12T10:01:24.353Z,5.20
2018-06-12T10:03:53.355Z,4.30
2018-06-12T10:06:21.664Z,5.00
2018-06-12T10:08:49.929Z,4.63
2018-06-12T10:11:18.201Z,4.30
2018-06-12T10:13:46.470Z,4.07
2018-06-12T10:16:14.758Z,4.20
2018-06-12T10:18:43.048Z,4.10
2018-06-12T10:21:11.334Z,4.80
2018-06-12T10:23:39.604Z,4.80
2018-06-12T10:26:07.861Z,5.90
2018-06-12T10:28:36.149Z,5.20
2018-06-12T10:31:04.405Z,4.67
2018-06-12T10:33:32.690Z,5.10
2018-06-12T10:36:00.952Z,5.30
2018-06-12T10:38:29.209Z,4.57
2018-06-12T10:40:57.477Z,4.80
2018-06-12T10:43:25.747Z,5.70
2018-06-12T10:45:54.211Z,5.20
2018-06-12T10:48:22.505Z,5.67
2018-06-12T10:50:50.767Z,5.70
2018-06-12T10:53:19.028Z,5.33
2018-06-12T10:55:47.304Z,5.30
2018-06-12T10:58:15.557Z,5.07
2018-06-12T11:00:43.827Z,5.07
2018-06-12T11:03:12.094Z,4.83
2018-06-12T11:05:40.549Z,4.53
2018-06-12T11:08:08.802Z,4.33
2018-06-12T11:10:37.061Z,4.30
2018-06-12T11:13:05.326Z,4.70
2018-06-12T11:15:33.610Z,5.70
2018-06-12T11:18:01.881Z,4.43
2018-06-12T11:20:30.164Z,5.00
2018-06-12T11:22:58.442Z,4.90
2018-06-12T11:25:26.880Z,4.23
2018-06-12T11:27:55.334Z,4.27
2018-06-12T11:30:23.585Z,3.73
2018-06-12T11:32:51.905Z,4.13
2018-06-12T11:35:20.213Z,4.30
2018-06-12T11:37:48.842Z,3.57
2018-06-12T11:40:16.835Z,4.93
2018-06-12T11:42:45.113Z,4.00
2018-06-12T11:45:13.583Z,4.73
2018-06-12T11:47:41.848Z,5.07
2018-06-12T11:50:10.129Z,3.70
2018-06-12T11:52:38.391Z,4.27
2018-06-12T11:55:06.710Z,5.10
2018-06-12T11:57:34.987Z,5.10
2018-06-12T12:00:03.282Z,4.97
2018-06-12T12:02:31.625Z,4.80
2018-06-12T12:04:59.885Z,4.50
2018-06-12T12:07:28.157Z,4.33
2018-06-12T12:09:56.461Z,4.83
2018-06-12T12:12:24.762Z,4.83
2018-06-12T12:14:53.256Z,4.87
2018-06-12T12:17:21.890Z,5.10
2018-06-12T12:19:50.158Z,5.87
2018-06-12T12:22:18.442Z,5.63
2018-06-12T12:24:46.743Z,5.07
2018-06-12T12:27:15.015Z,5.03
2018-06-12T12:29:43.301Z,5.33
2018-06-12T12:32:11.561Z,5.30
2018-06-12T12:34:39.851Z,5.47
2018-06-12T12:37:08.140Z,5.20
2018-06-12T12:39:36.417Z,5.50
2018-06-12T12:42:04.787Z,4.67
2018-06-12T12:44:33.082Z,5.13
2018-06-12T12:47:01.658Z,5.60
2018-06-12T12:49:29.935Z,5.20
2018-06-12T12:51:58.418Z,5.60
2018-06-12T12:54:26.719Z,5.37
2018-06-12T12:56:54.995Z,5.47
2018-06-12T12:59:23.309Z,5.93
2018-06-12T13:01:51.578Z,5.50
2018-06-12T13:04:19.887Z,6.37
2018-06-12T13:06:48.186Z,6.30
2018-06-12T13:09:16.502Z,8.20
2018-06-12T13:11:44.770Z,8.20
2018-06-12T13:14:13.218Z,8.47
2018-06-12T13:16:41.485Z,8.10
2018-06-12T13:19:09.750Z,7.20
2018-06-12T13:21:38.066Z,8.93
2018-06-12T13:24:06.399Z,8.93
2018-06-12T13:26:34.682Z,8.30
2018-06-12T13:29:03.043Z,8.00
2018-06-12T13:31:31.319Z,7.70
2018-06-12T13:33:59.620Z,8.53
2018-06-12T13:36:27.874Z,9.83
2018-06-12T13:38:56.138Z,8.23
2018-06-12T13:41:24.425Z,7.60
2018-06-12T13:43:52.697Z,8.20
2018-06-12T13:46:21.053Z,7.67
2018-06-12T13:48:49.325Z,8.77
2018-06-12T13:51:17.598Z,7.47
2018-06-12T13:53:52.139Z,7.90
2018-06-12T13:56:20.421Z,8.47
2018-06-12T13:58:48.725Z,8.70
2018-06-12T14:01:16.995Z,8.47
2018-06-12T14:03:45.310Z,8.20
2018-06-12T14:06:13.598Z,8.60
2018-06-12T14:08:42.039Z,7.80
2018-06-12T14:11:10.363Z,8.13
2018-06-12T14:13:38.944Z,7.87
2018-06-12T14:16:07.137Z,7.90
2018-06-12T14:18:35.397Z,8.23
2018-06-12T14:21:04.701Z,8.13
2018-06-12T14:23:33.080Z,8.50
2018-06-12T14:26:01.361Z,8.50
2018-06-12T14:28:29.848Z,7.43
2018-06-12T14:30:58.523Z,7.00
2018-06-12T14:33:26.785Z,7.27
2018-06-12T14:35:55.510Z,7.43
2018-06-12T14:38:24.070Z,8.10
2018-06-12T14:40:52.350Z,8.20
2018-06-12T14:43:20.913Z,7.80
2018-06-12T14:45:49.190Z,6.57
2018-06-12T14:48:17.458Z,7.97
2018-06-12T14:50:45.736Z,7.73
2018-06-12T14:53:14.006Z,7.53
2018-06-12T14:55:42.306Z,7.20
2018-06-12T14:58:11.642Z,7.33
2018-06-12T15:00:40.079Z,7.80
2018-06-12T15:03:08.546Z,9.57
2018-06-12T15:05:36.842Z,7.43
2018-06-12T15:08:05.132Z,7.07
2018-06-12T15:10:33.433Z,7.00
2018-06-12T15:13:01.702Z,6.90
2018-06-12T15:15:29.958Z,6.30
2018-06-12T15:17:58.227Z,8.63
2018-06-12T15:20:26.490Z,8.37
2018-06-12T15:22:54.762Z,7.67
2018-06-12T15:25:23.115Z,7.70
2018-06-12T15:27:52.867Z,8.20
2018-06-12T15:30:21.127Z,6.70
2018-06-12T15:32:49.426Z,7.50
2018-06-12T15:35:17.735Z,6.47
2018-06-12T15:37:46.159Z,7.40
2018-06-12T15:40:14.430Z,6.70
2018-06-12T15:42:42.700Z,6.50
2018-06-12T15:45:10.967Z,7.60
2018-06-12T15:47:39.427Z,7.03
2018-06-12T15:50:07.698Z,7.17
2018-06-12T15:52:35.957Z,6.90
2018-06-12T15:55:04.466Z,6.93
2018-06-12T15:57:32.734Z,6.50
2018-06-12T16:00:01.233Z,6.60
2018-06-12T16:02:29.493Z,6.50
2018-06-12T16:04:57.871Z,6.67
2018-06-12T16:07:26.184Z,7.07
2018-06-12T16:09:54.403Z,7.70
2018-06-12T16:12:22.683Z,7.80
2018-06-12T16:14:50.672Z,6.80
2018-06-12T16:17:18.934Z,7.47
2018-06-12T16:19:47.214Z,7.90
2018-06-12T16:22:15.474Z,8.80
2018-06-12T16:24:43.738Z,7.50
2018-06-12T16:27:12.005Z,8.70
2018-06-12T16:29:40.285Z,7.27
2018-06-12T16:32:08.562Z,8.53
2018-06-12T16:34:36.832Z,9.40
2018-06-12T16:37:05.392Z,8.10
2018-06-12T16:39:33.669Z,7.43
2018-06-12T16:42:01.930Z,7.97
2018-06-12T16:44:30.219Z,7.10
2018-06-12T16:46:58.668Z,7.73
2018-06-12T16:49:26.941Z,8.33
2018-06-12T16:51:55.219Z,7.67
2018-06-12T16:54:23.484Z,7.93
2018-06-12T16:56:51.750Z,7.87
2018-06-12T16:59:20.019Z,8.67
2018-06-12T17:01:48.283Z,7.87
2018-06-12T17:04:16.553Z,9.37
2018-06-12T17:06:44.808Z,8.67
2018-06-12T17:09:13.286Z,9.70
2018-06-12T17:11:41.842Z,9.77
2018-06-12T17:14:10.103Z,8.70
2018-06-12T17:16:38.382Z,9.23
2018-06-12T17:19:06.668Z,8.67
2018-06-12T17:21:34.930Z,7.13
2018-06-12T17:24:03.217Z,7.77
2018-06-12T17:26:31.494Z,8.77
2018-06-12T17:28:59.768Z,8.83
2018-06-12T17:31:28.049Z,8.20
2018-06-12T17:33:56.313Z,8.10
2018-06-12T17:36:24.589Z,7.60
2018-06-12T17:38:52.865Z,8.20
2018-06-12T17:41:21.137Z,7.67
2018-06-12T17:43:49.410Z,10.40
2018-06-12T17:46:17.677Z,7.50
2018-06-12T17:48:45.978Z,7.40
2018-06-12T17:51:14.254Z,8.30
2018-06-12T17:53:42.546Z,8.67
2018-06-12T17:56:10.552Z,8.00
2018-06-12T17:58:38.813Z,7.50
2018-06-12T18:01:07.082Z,7.33
2018-06-12T18:03:35.085Z,7.93
2018-06-12T18:06:03.361Z,8.30
2018-06-12T18:08:31.633Z,7.30
2018-06-12T18:10:59.907Z,8.07
2018-06-12T18:13:28.165Z,7.90
2018-06-12T18:15:56.425Z,7.97
2018-06-12T18:18:24.699Z,8.80
2018-06-12T18:20:52.949Z,8.90
2018-06-12T18:23:21.253Z,8.60
2018-06-12T18:25:49.501Z,8.90
2018-06-12T18:28:17.765Z,8.67
2018-06-12T18:30:46.037Z,8.70
2018-06-12T18:33:14.315Z,10.20
2018-06-12T18:35:42.586Z,8.00
2018-06-12T18:38:10.853Z,9.00
2018-06-12T18:40:39.131Z,10.00
2018-06-12T18:43:07.422Z,9.73
2018-06-12T18:45:35.706Z,9.53
2018-06-12T18:48:04.014Z,9.73
2018-06-12T18:50:32.285Z,8.83
2018-06-12T18:53:00.550Z,8.47
2018-06-12T18:55:28.825Z,8.73
2018-06-12T18:57:57.081Z,9.47
2018-06-12T19:00:25.807Z,8.87
2018-06-12T19:02:54.042Z,10.50
2018-06-12T19:05:22.315Z,7.67
2018-06-12T19:07:51.255Z,9.20
2018-06-12T19:10:19.561Z,7.90
2018-06-12T19:12:47.555Z,7.70
2018-06-12T19:15:15.853Z,7.87
2018-06-12T19:17:44.118Z,7.67
2018-06-12T19:20:12.374Z,8.93
2018-06-12T19:22:40.641Z,7.23
2018-06-12T19:25:08.911Z,8.53
2018-06-12T19:27:37.174Z,7.03
2018-06-12T19:30:05.462Z,8.03
2018-06-12T19:32:33.739Z,6.60
2018-06-12T19:35:02.019Z,6.70
2018-06-12T19:37:30.289Z,6.07
2018-06-12T19:39:58.551Z,5.33
2018-06-12T19:42:26.814Z,4.50
2018-06-12T19:44:55.089Z,6.00
2018-06-12T19:47:23.399Z,4.70
2018-06-12T19:49:51.638Z,6.33
2018-06-12T19:52:19.901Z,4.50
2018-06-12T19:54:48.362Z,5.03
2018-06-12T19:57:16.721Z,5.27
2018-06-12T19:59:45.034Z,5.80
2018-06-12T20:02:13.298Z,5.90
2018-06-12T20:04:41.558Z,5.50
2018-06-12T20:07:09.827Z,5.47
2018-06-12T20:09:38.089Z,5.50
2018-06-12T20:12:06.355Z,5.30
2018-06-12T20:14:34.635Z,5.80
2018-06-12T20:17:02.902Z,5.77
2018-06-12T20:19:31.196Z,6.23
2018-06-12T20:21:59.633Z,6.20
2018-06-12T20:24:27.894Z,5.73
2018-06-12T20:26:56.372Z,6.77
2018-06-12T20:29:24.971Z,5.20
2018-06-12T20:31:53.230Z,5.87
2018-06-12T20:34:21.495Z,6.03
2018-06-12T20:36:49.767Z,4.77
2018-06-12T20:39:18.030Z,6.10
2018-06-12T20:41:46.303Z,6.23
2018-06-12T20:44:14.306Z,6.60
2018-06-12T20:46:42.601Z,6.73
2018-06-12T20:49:10.864Z,6.70
2018-06-12T20:51:39.141Z,6.17
2018-06-12T20:54:07.414Z,6.50
2018-06-12T20:56:35.691Z,6.57
2018-06-12T20:59:03.990Z,5.17
2018-06-12T21:01:32.263Z,5.70
2018-06-12T21:04:00.563Z,5.87
2018-06-12T21:06:28.844Z,4.77
2018-06-12T21:08:57.129Z,5.40
2018-06-12T21:11:25.413Z,5.33
2018-06-12T21:13:53.694Z,5.13
2018-06-12T21:16:21.958Z,5.07
2018-06-12T21:18:50.224Z,5.13
2018-06-12T21:21:18.490Z,6.27
2018-06-12T21:23:46.866Z,5.77
2018-06-12T21:26:15.143Z,5.30
2018-06-12T21:28:43.410Z,5.47
2018-06-12T21:31:11.673Z,5.13
2018-06-12T21:33:39.944Z,6.00
2018-06-12T21:36:08.222Z,4.73
2018-06-12T21:38:36.547Z,5.70
2018-06-12T21:41:04.899Z,4.93
2018-06-12T21:43:33.116Z,5.30
2018-06-12T21:46:01.397Z,6.20
2018-06-12T21:48:29.673Z,5.50
2018-06-12T21:50:58.973Z,6.10
2018-06-12T21:53:27.233Z,6.10
2018-06-12T21:55:55.486Z,7.80
2018-06-12T21:58:24.182Z,6.00
2018-06-12T22:00:52.557Z,7.30
2018-06-12T22:03:21.042Z,6.83
2018-06-12T22:05:49.334Z,7.37
2018-06-12T22:08:17.618Z,5.93
2018-06-12T22:10:45.886Z,6.40
2018-06-12T22:13:14.154Z,6.27
2018-06-12T22:15:42.418Z,4.97
2018-06-12T22:18:10.687Z,4.63
2018-06-12T22:20:38.954Z,4.40
2018-06-12T22:23:07.226Z,4.10
2018-06-12T22:25:35.498Z,3.33
2018-06-12T22:28:03.779Z,3.70
2018-06-12T22:30:32.078Z,4.67
2018-06-12T22:33:00.345Z,3.67
2018-06-12T22:35:28.605Z,4.07
2018-06-12T22:37:56.873Z,3.60
2018-06-12T22:40:25.136Z,4.10
2018-06-12T22:42:53.414Z,3.07
2018-06-12T22:45:21.682Z,2.33
2018-06-12T22:47:49.950Z,2.80
2018-06-12T22:50:18.289Z,3.10
2018-06-12T22:52:46.550Z,2.83
2018-06-12T22:55:14.822Z,2.00
2018-06-12T22:57:43.148Z,2.60
2018-06-12T23:00:16.770Z,2.90
2018-06-12T23:02:45.281Z,2.70
2018-06-12T23:05:13.543Z,2.70
2018-06-12T23:07:41.870Z,2.37
2018-06-12T23:10:10.197Z,2.10
2018-06-12T23:12:38.473Z,2.50
2018-06-12T23:15:06.756Z,2.73
2018-06-12T23:17:35.063Z,2.60
2018-06-12T23:20:08.526Z,2.43
2018-06-12T23:22:36.811Z,2.63
2018-06-12T23:25:05.081Z,2.07
2018-06-12T23:27:33.373Z,2.30
2018-06-12T23:30:01.646Z,3.70
2018-06-12T23:32:29.918Z,2.77
2018-06-12T23:34:58.203Z,2.20
2018-06-12T23:37:26.506Z,2.70
2018-06-12T23:39:54.788Z,2.20
2018-06-12T23:42:23.045Z,2.57
2018-06-12T23:44:51.312Z,2.40
2018-06-12T23:47:19.591Z,2.03
2018-06-12T23:49:47.854Z,2.10
2018-06-12T23:52:16.137Z,2.80
2018-06-12T23:54:44.415Z,2.57
2018-06-12T23:57:12.686Z,2.53
2018-06-12T23:59:40.958Z,2.43
